sensor_id;sensor_type;location;lat;lon;timestamp;pressure;altitude;pressure_sealevel;temperature;humidity
77077;BME280;66003;52.286;104.306;2023-05-31T00:00:29;95904.19;;;17.04;53.69
77077;BME280;66003;52.286;104.306;2023-05-31T00:02:55;95926.97;;;17.15;53.70
77077;BME280;66003;52.286;104.306;2023-05-31T00:05:21;95928.75;;;17.11;54.67
77077;BME280;66003;52.286;104.306;2023-05-31T00:07:47;95937.13;;;17.18;53.67
77077;BME280;66003;52.286;104.306;2023-05-31T00:10:13;95936.91;;;17.23;54.05
77077;BME280;66003;52.286;104.306;2023-05-31T00:12:40;95926.19;;;17.14;53.82
77077;BME280;66003;52.286;104.306;2023-05-31T00:15:06;95894.66;;;17.06;53.86
77077;BME280;66003;52.286;104.306;2023-05-31T00:17:32;95917.75;;;17.16;54.22
77077;BME280;66003;52.286;104.306;2023-05-31T00:19:58;95914.91;;;17.12;53.89
77077;BME280;66003;52.286;104.306;2023-05-31T00:22:24;95939.41;;;17.28;53.33
77077;BME280;66003;52.286;104.306;2023-05-31T00:24:51;95940.16;;;17.49;52.22
77077;BME280;66003;52.286;104.306;2023-05-31T00:27:18;95919.19;;;17.13;53.13
77077;BME280;66003;52.286;104.306;2023-05-31T00:29:44;95932.28;;;17.23;53.41
77077;BME280;66003;52.286;104.306;2023-05-31T00:32:10;95943.31;;;17.18;53.92
77077;BME280;66003;52.286;104.306;2023-05-31T00:34:36;95912.16;;;17.00;54.04
77077;BME280;66003;52.286;104.306;2023-05-31T00:37:02;95948.00;;;17.09;54.32
77077;BME280;66003;52.286;104.306;2023-05-31T00:39:29;95927.16;;;16.89;54.02
77077;BME280;66003;52.286;104.306;2023-05-31T00:41:55;95918.28;;;16.68;54.56
77077;BME280;66003;52.286;104.306;2023-05-31T00:44:21;95927.78;;;16.74;54.20
77077;BME280;66003;52.286;104.306;2023-05-31T00:46:48;95941.66;;;16.84;54.90
77077;BME280;66003;52.286;104.306;2023-05-31T00:49:14;95942.53;;;16.97;54.68
77077;BME280;66003;52.286;104.306;2023-05-31T00:51:41;95962.53;;;17.17;54.51
77077;BME280;66003;52.286;104.306;2023-05-31T00:54:07;95961.91;;;17.53;52.49
77077;BME280;66003;52.286;104.306;2023-05-31T00:56:33;95936.00;;;17.19;53.58
77077;BME280;66003;52.286;104.306;2023-05-31T00:59:00;95957.28;;;17.20;53.92
77077;BME280;66003;52.286;104.306;2023-05-31T01:01:27;95912.31;;;16.83;54.18
77077;BME280;66003;52.286;104.306;2023-05-31T01:03:59;95954.50;;;17.08;54.81
77077;BME280;66003;52.286;104.306;2023-05-31T01:06:26;95946.97;;;17.14;54.07
77077;BME280;66003;52.286;104.306;2023-05-31T01:09:03;95943.50;;;17.13;54.05
77077;BME280;66003;52.286;104.306;2023-05-31T01:14:32;95987.66;;;17.50;53.55
77077;BME280;66003;52.286;104.306;2023-05-31T01:17:29;95968.66;;;17.26;53.72
77077;BME280;66003;52.286;104.306;2023-05-31T01:20:01;95989.28;;;17.30;53.54
77077;BME280;66003;52.286;104.306;2023-05-31T01:22:48;96002.00;;;17.30;53.99
77077;BME280;66003;52.286;104.306;2023-05-31T01:25:33;95977.56;;;17.06;54.28
77077;BME280;66003;52.286;104.306;2023-05-31T01:28:05;96005.56;;;17.22;54.15
77077;BME280;66003;52.286;104.306;2023-05-31T01:30:35;96008.13;;;17.18;54.10
77077;BME280;66003;52.286;104.306;2023-05-31T01:33:05;95990.41;;;17.09;53.94
77077;BME280;66003;52.286;104.306;2023-05-31T01:35:34;96003.44;;;17.27;53.76
77077;BME280;66003;52.286;104.306;2023-05-31T01:38:00;95990.78;;;17.19;53.80
77077;BME280;66003;52.286;104.306;2023-05-31T01:40:26;95985.06;;;17.21;53.63
77077;BME280;66003;52.286;104.306;2023-05-31T01:42:52;95983.81;;;17.39;53.33
77077;BME280;66003;52.286;104.306;2023-05-31T01:45:19;95994.13;;;17.58;52.75
77077;BME280;66003;52.286;104.306;2023-05-31T01:47:48;95993.00;;;17.59;52.63
77077;BME280;66003;52.286;104.306;2023-05-31T01:50:17;95987.66;;;17.50;52.93
77077;BME280;66003;52.286;104.306;2023-05-31T01:52:44;96009.34;;;17.62;52.64
77077;BME280;66003;52.286;104.306;2023-05-31T01:55:10;96020.00;;;17.59;52.54
77077;BME280;66003;52.286;104.306;2023-05-31T01:57:38;96000.53;;;17.53;52.42
77077;BME280;66003;52.286;104.306;2023-05-31T02:00:08;95972.47;;;17.25;52.69
77077;BME280;66003;52.286;104.306;2023-05-31T02:02:40;95995.84;;;17.42;52.57
77077;BME280;66003;52.286;104.306;2023-05-31T02:05:08;96033.53;;;17.59;52.57
77077;BME280;66003;52.286;104.306;2023-05-31T02:07:44;96008.50;;;17.50;52.47
77077;BME280;66003;52.286;104.306;2023-05-31T02:10:11;96019.69;;;17.60;52.74
77077;BME280;66003;52.286;104.306;2023-05-31T02:12:38;96014.59;;;17.59;52.42
77077;BME280;66003;52.286;104.306;2023-05-31T02:15:06;96025.88;;;17.61;52.44
77077;BME280;66003;52.286;104.306;2023-05-31T02:17:40;96029.69;;;17.68;52.27
77077;BME280;66003;52.286;104.306;2023-05-31T02:20:10;96042.31;;;17.77;52.42
77077;BME280;66003;52.286;104.306;2023-05-31T02:22:40;96034.50;;;17.96;51.66
77077;BME280;66003;52.286;104.306;2023-05-31T02:25:16;96015.09;;;17.94;51.62
77077;BME280;66003;52.286;104.306;2023-05-31T02:27:42;96028.66;;;18.06;51.07
77077;BME280;66003;52.286;104.306;2023-05-31T02:30:09;96031.41;;;18.18;51.55
77077;BME280;66003;52.286;104.306;2023-05-31T02:32:37;96031.78;;;18.29;51.01
77077;BME280;66003;52.286;104.306;2023-05-31T02:35:06;96037.78;;;18.47;51.13
77077;BME280;66003;52.286;104.306;2023-05-31T02:37:33;96034.16;;;18.55;50.66
77077;BME280;66003;52.286;104.306;2023-05-31T02:40:00;96016.16;;;18.59;50.86
77077;BME280;66003;52.286;104.306;2023-05-31T02:42:26;96048.41;;;18.88;50.31
77077;BME280;66003;52.286;104.306;2023-05-31T02:44:52;96044.44;;;19.34;49.49
77077;BME280;66003;52.286;104.306;2023-05-31T02:47:19;96036.00;;;19.11;49.59
77077;BME280;66003;52.286;104.306;2023-05-31T02:49:45;96045.91;;;19.20;49.44
77077;BME280;66003;52.286;104.306;2023-05-31T02:52:11;96002.72;;;18.99;49.55
77077;BME280;66003;52.286;104.306;2023-05-31T02:54:37;96039.13;;;19.26;48.71
77077;BME280;66003;52.286;104.306;2023-05-31T02:57:04;96052.66;;;19.26;49.49
77077;BME280;66003;52.286;104.306;2023-05-31T02:59:30;96042.63;;;19.26;48.95
77077;BME280;66003;52.286;104.306;2023-05-31T03:01:56;96044.78;;;19.33;48.26
77077;BME280;66003;52.286;104.306;2023-05-31T03:04:22;96046.69;;;19.32;48.45
77077;BME280;66003;52.286;104.306;2023-05-31T03:06:49;96052.78;;;19.29;48.07
77077;BME280;66003;52.286;104.306;2023-05-31T03:09:15;96062.56;;;19.70;47.82
77077;BME280;66003;52.286;104.306;2023-05-31T03:11:45;96062.81;;;19.53;47.73
77077;BME280;66003;52.286;104.306;2023-05-31T03:14:12;96064.63;;;19.49;48.28
77077;BME280;66003;52.286;104.306;2023-05-31T03:16:38;96062.59;;;19.46;47.40
77077;BME280;66003;52.286;104.306;2023-05-31T03:19:04;96069.94;;;19.58;47.30
77077;BME280;66003;52.286;104.306;2023-05-31T03:21:31;96064.50;;;19.45;46.89
77077;BME280;66003;52.286;104.306;2023-05-31T03:23:57;96049.75;;;19.31;47.49
77077;BME280;66003;52.286;104.306;2023-05-31T03:26:23;96076.25;;;19.37;47.72
77077;BME280;66003;52.286;104.306;2023-05-31T03:28:50;96061.94;;;19.25;48.03
77077;BME280;66003;52.286;104.306;2023-05-31T03:31:16;96054.19;;;19.11;47.96
77077;BME280;66003;52.286;104.306;2023-05-31T03:33:42;96076.25;;;19.25;47.90
77077;BME280;66003;52.286;104.306;2023-05-31T03:36:09;96074.81;;;19.28;47.37
77077;BME280;66003;52.286;104.306;2023-05-31T03:38:35;96083.47;;;19.70;46.89
77077;BME280;66003;52.286;104.306;2023-05-31T03:41:01;96088.22;;;19.36;47.01
77077;BME280;66003;52.286;104.306;2023-05-31T03:43:27;96077.53;;;19.16;47.88
77077;BME280;66003;52.286;104.306;2023-05-31T03:45:53;96074.47;;;19.17;47.80
77077;BME280;66003;52.286;104.306;2023-05-31T03:48:19;96080.81;;;19.21;47.82
77077;BME280;66003;52.286;104.306;2023-05-31T03:50:45;96069.97;;;19.21;47.40
77077;BME280;66003;52.286;104.306;2023-05-31T03:53:12;96091.31;;;19.23;47.43
77077;BME280;66003;52.286;104.306;2023-05-31T03:55:38;96073.00;;;19.32;47.32
77077;BME280;66003;52.286;104.306;2023-05-31T03:58:04;96075.47;;;19.37;47.10
77077;BME280;66003;52.286;104.306;2023-05-31T04:00:30;96088.34;;;19.52;47.04
77077;BME280;66003;52.286;104.306;2023-05-31T04:02:56;96097.28;;;19.93;46.87
77077;BME280;66003;52.286;104.306;2023-05-31T04:05:22;96091.69;;;19.73;46.56
77077;BME280;66003;52.286;104.306;2023-05-31T04:07:48;96079.13;;;19.81;46.05
77077;BME280;66003;52.286;104.306;2023-05-31T04:10:14;96083.84;;;19.84;46.39
77077;BME280;66003;52.286;104.306;2023-05-31T04:12:41;96084.25;;;19.98;45.53
77077;BME280;66003;52.286;104.306;2023-05-31T04:15:07;96076.22;;;20.02;45.62
77077;BME280;66003;52.286;104.306;2023-05-31T04:17:33;96072.59;;;19.98;45.98
77077;BME280;66003;52.286;104.306;2023-05-31T04:19:59;96078.53;;;20.15;45.34
77077;BME280;66003;52.286;104.306;2023-05-31T04:22:26;96090.81;;;20.25;44.77
77077;BME280;66003;52.286;104.306;2023-05-31T04:24:52;96086.34;;;20.17;44.83
77077;BME280;66003;52.286;104.306;2023-05-31T04:27:18;96090.44;;;20.54;45.03
77077;BME280;66003;52.286;104.306;2023-05-31T04:29:45;96087.31;;;20.25;45.10
77077;BME280;66003;52.286;104.306;2023-05-31T04:32:16;96083.97;;;20.15;44.83
77077;BME280;66003;52.286;104.306;2023-05-31T04:34:42;96057.91;;;19.99;44.89
77077;BME280;66003;52.286;104.306;2023-05-31T04:37:08;96068.31;;;19.97;44.69
77077;BME280;66003;52.286;104.306;2023-05-31T04:39:35;96067.88;;;19.95;44.80
77077;BME280;66003;52.286;104.306;2023-05-31T04:42:02;96073.28;;;19.95;44.90
77077;BME280;66003;52.286;104.306;2023-05-31T04:44:28;96084.94;;;19.95;44.17
77077;BME280;66003;52.286;104.306;2023-05-31T04:46:54;96094.22;;;20.22;43.42
77077;BME280;66003;52.286;104.306;2023-05-31T04:49:20;96084.44;;;20.33;42.88
77077;BME280;66003;52.286;104.306;2023-05-31T04:51:46;96076.16;;;20.58;42.30
77077;BME280;66003;52.286;104.306;2023-05-31T04:54:13;96084.03;;;20.47;42.33
77077;BME280;66003;52.286;104.306;2023-05-31T04:56:39;96103.66;;;20.40;42.56
77077;BME280;66003;52.286;104.306;2023-05-31T04:59:05;96099.84;;;20.88;42.46
77077;BME280;66003;52.286;104.306;2023-05-31T05:01:32;96068.88;;;20.46;42.31
77077;BME280;66003;52.286;104.306;2023-05-31T05:03:59;96105.44;;;20.80;41.94
77077;BME280;66003;52.286;104.306;2023-05-31T05:06:26;96108.50;;;20.78;41.78
77077;BME280;66003;52.286;104.306;2023-05-31T05:08:53;96109.63;;;20.77;41.55
77077;BME280;66003;52.286;104.306;2023-05-31T05:11:20;96094.50;;;20.61;41.49
77077;BME280;66003;52.286;104.306;2023-05-31T05:13:47;96113.59;;;20.80;41.15
77077;BME280;66003;52.286;104.306;2023-05-31T05:16:13;96118.25;;;21.26;41.75
77077;BME280;66003;52.286;104.306;2023-05-31T05:18:40;96092.13;;;20.75;41.07
77077;BME280;66003;52.286;104.306;2023-05-31T05:21:06;96111.03;;;20.55;41.66
77077;BME280;66003;52.286;104.306;2023-05-31T05:23:33;96103.75;;;20.32;41.74
77077;BME280;66003;52.286;104.306;2023-05-31T05:26:00;96132.31;;;20.26;42.07
77077;BME280;66003;52.286;104.306;2023-05-31T05:28:28;96135.75;;;20.10;42.32
77077;BME280;66003;52.286;104.306;2023-05-31T05:30:54;96140.94;;;20.15;42.17
77077;BME280;66003;52.286;104.306;2023-05-31T05:33:21;96125.06;;;20.02;42.37
77077;BME280;66003;52.286;104.306;2023-05-31T05:35:47;96146.06;;;20.05;42.16
77077;BME280;66003;52.286;104.306;2023-05-31T05:38:13;96146.38;;;20.43;41.56
77077;BME280;66003;52.286;104.306;2023-05-31T05:40:39;96148.47;;;20.22;41.41
77077;BME280;66003;52.286;104.306;2023-05-31T05:43:06;96124.91;;;20.10;41.46
77077;BME280;66003;52.286;104.306;2023-05-31T05:45:32;96113.66;;;20.24;40.73
77077;BME280;66003;52.286;104.306;2023-05-31T05:47:58;96113.03;;;20.31;41.25
77077;BME280;66003;52.286;104.306;2023-05-31T05:50:25;96129.97;;;20.52;40.92
77077;BME280;66003;52.286;104.306;2023-05-31T05:52:51;96133.41;;;20.65;41.04
77077;BME280;66003;52.286;104.306;2023-05-31T05:55:18;96107.28;;;20.60;40.84
77077;BME280;66003;52.286;104.306;2023-05-31T05:57:46;96122.09;;;20.94;40.06
77077;BME280;66003;52.286;104.306;2023-05-31T06:00:13;96136.19;;;21.15;40.41
77077;BME280;66003;52.286;104.306;2023-05-31T06:02:41;96111.88;;;21.19;40.54
77077;BME280;66003;52.286;104.306;2023-05-31T06:05:08;96131.66;;;21.35;40.87
77077;BME280;66003;52.286;104.306;2023-05-31T06:07:34;96147.75;;;21.59;40.41
77077;BME280;66003;52.286;104.306;2023-05-31T06:10:00;96141.84;;;21.73;39.89
77077;BME280;66003;52.286;104.306;2023-05-31T06:12:30;96164.22;;;21.82;40.61
77077;BME280;66003;52.286;104.306;2023-05-31T06:14:56;96159.84;;;21.62;40.64
77077;BME280;66003;52.286;104.306;2023-05-31T06:17:23;96177.19;;;21.73;40.72
77077;BME280;66003;52.286;104.306;2023-05-31T06:19:50;96168.66;;;21.55;41.09
77077;BME280;66003;52.286;104.306;2023-05-31T06:22:16;96167.69;;;21.48;41.43
77077;BME280;66003;52.286;104.306;2023-05-31T06:24:42;96177.16;;;22.24;40.51
77077;BME280;66003;52.286;104.306;2023-05-31T06:27:08;96173.22;;;21.86;40.69
77077;BME280;66003;52.286;104.306;2023-05-31T06:29:35;96170.84;;;21.85;40.47
77077;BME280;66003;52.286;104.306;2023-05-31T06:32:01;96174.00;;;21.87;40.71
77077;BME280;66003;52.286;104.306;2023-05-31T06:34:28;96170.50;;;22.02;40.81
77077;BME280;66003;52.286;104.306;2023-05-31T06:36:54;96154.88;;;21.83;40.34
77077;BME280;66003;52.286;104.306;2023-05-31T06:39:22;96183.75;;;21.88;40.85
77077;BME280;66003;52.286;104.306;2023-05-31T06:41:51;96178.09;;;21.96;40.52
77077;BME280;66003;52.286;104.306;2023-05-31T06:44:17;96192.09;;;22.30;40.11
77077;BME280;66003;52.286;104.306;2023-05-31T06:46:43;96115.19;;;21.63;40.38
77077;BME280;66003;52.286;104.306;2023-05-31T06:49:09;96184.06;;;22.18;40.18
77077;BME280;66003;52.286;104.306;2023-05-31T06:51:35;96179.41;;;21.68;41.12
77077;BME280;66003;52.286;104.306;2023-05-31T06:54:02;96172.00;;;21.84;40.74
77077;BME280;66003;52.286;104.306;2023-05-31T06:56:28;96170.13;;;21.69;41.38
77077;BME280;66003;52.286;104.306;2023-05-31T06:58:55;96173.00;;;21.60;41.03
77077;BME280;66003;52.286;104.306;2023-05-31T07:01:21;96180.69;;;21.89;40.97
77077;BME280;66003;52.286;104.306;2023-05-31T07:03:47;96162.00;;;21.37;41.54
77077;BME280;66003;52.286;104.306;2023-05-31T07:06:13;96184.53;;;22.04;40.61
77077;BME280;66003;52.286;104.306;2023-05-31T07:08:39;96159.28;;;21.72;40.87
77077;BME280;66003;52.286;104.306;2023-05-31T07:11:06;96163.72;;;21.61;41.12
77077;BME280;66003;52.286;104.306;2023-05-31T07:13:32;96185.13;;;21.62;40.81
77077;BME280;66003;52.286;104.306;2023-05-31T07:15:58;96191.53;;;21.39;41.21
77077;BME280;66003;52.286;104.306;2023-05-31T07:18:24;96183.28;;;21.67;40.83
77077;BME280;66003;52.286;104.306;2023-05-31T07:20:50;96181.53;;;21.11;41.54
77077;BME280;66003;52.286;104.306;2023-05-31T07:23:16;96160.09;;;20.78;42.41
77077;BME280;66003;52.286;104.306;2023-05-31T07:25:42;96152.06;;;20.82;42.16
77077;BME280;66003;52.286;104.306;2023-05-31T07:28:08;96180.69;;;20.79;42.32
77077;BME280;66003;52.286;104.306;2023-05-31T07:30:36;96177.13;;;20.75;42.16
77077;BME280;66003;52.286;104.306;2023-05-31T07:33:02;96182.97;;;21.21;41.48
77077;BME280;66003;52.286;104.306;2023-05-31T07:35:28;96156.19;;;20.76;42.24
77077;BME280;66003;52.286;104.306;2023-05-31T07:37:54;96170.41;;;20.57;42.94
77077;BME280;66003;52.286;104.306;2023-05-31T07:40:20;96175.25;;;20.64;42.64
77077;BME280;66003;52.286;104.306;2023-05-31T07:42:46;96171.25;;;20.73;42.41
77077;BME280;66003;52.286;104.306;2023-05-31T07:45:15;96168.34;;;20.82;41.99
77077;BME280;66003;52.286;104.306;2023-05-31T07:47:52;96163.63;;;20.95;41.89
77077;BME280;66003;52.286;104.306;2023-05-31T07:50:29;96148.91;;;20.80;41.93
77077;BME280;66003;52.286;104.306;2023-05-31T07:52:58;96168.31;;;21.41;41.82
77077;BME280;66003;52.286;104.306;2023-05-31T07:55:24;96168.25;;;21.22;41.63
77077;BME280;66003;52.286;104.306;2023-05-31T07:57:51;96166.88;;;21.16;41.84
77077;BME280;66003;52.286;104.306;2023-05-31T08:00:18;96163.91;;;21.05;41.65
77077;BME280;66003;52.286;104.306;2023-05-31T08:02:45;96170.31;;;20.97;41.88
77077;BME280;66003;52.286;104.306;2023-05-31T08:05:13;96152.16;;;21.01;41.73
77077;BME280;66003;52.286;104.306;2023-05-31T08:07:39;96169.44;;;21.09;41.91
77077;BME280;66003;52.286;104.306;2023-05-31T08:10:06;96150.50;;;20.97;41.54
77077;BME280;66003;52.286;104.306;2023-05-31T08:12:33;96172.59;;;21.11;41.68
77077;BME280;66003;52.286;104.306;2023-05-31T08:14:59;96168.94;;;21.19;41.58
77077;BME280;66003;52.286;104.306;2023-05-31T08:17:26;96149.91;;;21.35;40.96
77077;BME280;66003;52.286;104.306;2023-05-31T08:19:52;96161.03;;;21.45;40.73
77077;BME280;66003;52.286;104.306;2023-05-31T08:22:18;96173.75;;;21.41;40.77
77077;BME280;66003;52.286;104.306;2023-05-31T08:24:45;96179.00;;;21.50;40.43
77077;BME280;66003;52.286;104.306;2023-05-31T08:27:11;96156.00;;;21.16;41.00
77077;BME280;66003;52.286;104.306;2023-05-31T08:29:37;96142.34;;;21.12;41.32
77077;BME280;66003;52.286;104.306;2023-05-31T08:32:05;96181.25;;;21.16;41.60
77077;BME280;66003;52.286;104.306;2023-05-31T08:34:33;96181.09;;;21.09;41.25
77077;BME280;66003;52.286;104.306;2023-05-31T08:37:00;96189.13;;;20.90;41.78
77077;BME280;66003;52.286;104.306;2023-05-31T08:39:26;96167.25;;;20.55;42.43
77077;BME280;66003;52.286;104.306;2023-05-31T08:42:00;96171.47;;;20.52;42.36
77077;BME280;66003;52.286;104.306;2023-05-31T08:44:40;96122.75;;;20.16;42.33
77077;BME280;66003;52.286;104.306;2023-05-31T08:47:24;96164.59;;;20.43;42.78
77077;BME280;66003;52.286;104.306;2023-05-31T08:49:54;96129.41;;;20.06;43.36
77077;BME280;66003;52.286;104.306;2023-05-31T08:52:21;96169.84;;;20.36;43.07
77077;BME280;66003;52.286;104.306;2023-05-31T08:54:49;96171.88;;;20.39;42.83
77077;BME280;66003;52.286;104.306;2023-05-31T08:57:17;96146.91;;;20.21;43.32
77077;BME280;66003;52.286;104.306;2023-05-31T08:59:49;96170.91;;;20.47;43.22
77077;BME280;66003;52.286;104.306;2023-05-31T09:02:17;96178.16;;;20.43;43.18
77077;BME280;66003;52.286;104.306;2023-05-31T09:04:43;96165.41;;;20.31;43.57
77077;BME280;66003;52.286;104.306;2023-05-31T09:07:10;96167.13;;;20.36;43.19
77077;BME280;66003;52.286;104.306;2023-05-31T09:09:36;96175.09;;;20.72;42.91
77077;BME280;66003;52.286;104.306;2023-05-31T09:12:02;96176.50;;;20.38;42.95
77077;BME280;66003;52.286;104.306;2023-05-31T09:14:29;96177.50;;;20.34;43.40
77077;BME280;66003;52.286;104.306;2023-05-31T09:16:56;96172.56;;;20.24;44.57
77077;BME280;66003;52.286;104.306;2023-05-31T09:19:22;96176.75;;;20.21;43.63
77077;BME280;66003;52.286;104.306;2023-05-31T09:21:51;96148.06;;;20.08;43.95
77077;BME280;66003;52.286;104.306;2023-05-31T09:24:18;96174.28;;;20.16;43.56
77077;BME280;66003;52.286;104.306;2023-05-31T09:26:49;96158.59;;;20.09;43.88
77077;BME280;66003;52.286;104.306;2023-05-31T09:29:16;96130.19;;;19.79;44.16
77077;BME280;66003;52.286;104.306;2023-05-31T09:31:44;96183.66;;;20.18;44.05
77077;BME280;66003;52.286;104.306;2023-05-31T09:34:25;96179.28;;;20.42;44.34
77077;BME280;66003;52.286;104.306;2023-05-31T09:36:58;96183.06;;;20.37;43.72
77077;BME280;66003;52.286;104.306;2023-05-31T09:39:25;96160.56;;;20.25;43.68
77077;BME280;66003;52.286;104.306;2023-05-31T09:41:51;96184.19;;;20.36;43.96
77077;BME280;66003;52.286;104.306;2023-05-31T09:44:18;96181.25;;;20.41;43.71
77077;BME280;66003;52.286;104.306;2023-05-31T09:46:47;96180.88;;;20.43;44.43
77077;BME280;66003;52.286;104.306;2023-05-31T09:49:13;96182.81;;;20.42;44.04
77077;BME280;66003;52.286;104.306;2023-05-31T09:51:39;96175.91;;;20.45;43.96
77077;BME280;66003;52.286;104.306;2023-05-31T09:54:10;96163.56;;;20.47;44.19
77077;BME280;66003;52.286;104.306;2023-05-31T09:56:38;96175.59;;;20.62;43.66
77077;BME280;66003;52.286;104.306;2023-05-31T09:59:06;96153.50;;;20.48;43.87
77077;BME280;66003;52.286;104.306;2023-05-31T10:01:33;96151.31;;;20.53;43.50
77077;BME280;66003;52.286;104.306;2023-05-31T10:04:05;96160.97;;;20.67;43.82
77077;BME280;66003;52.286;104.306;2023-05-31T10:06:33;96173.69;;;20.78;43.32
77077;BME280;66003;52.286;104.306;2023-05-31T10:09:06;96165.91;;;20.77;43.10
77077;BME280;66003;52.286;104.306;2023-05-31T10:11:35;96131.81;;;20.64;43.11
77077;BME280;66003;52.286;104.306;2023-05-31T10:14:03;96190.47;;;20.96;42.50
77077;BME280;66003;52.286;104.306;2023-05-31T10:16:59;96188.53;;;20.97;43.22
77077;BME280;66003;52.286;104.306;2023-05-31T10:19:41;96189.50;;;21.04;42.31
77077;BME280;66003;52.286;104.306;2023-05-31T10:22:14;96185.63;;;20.89;43.00
77077;BME280;66003;52.286;104.306;2023-05-31T10:24:53;96163.81;;;20.86;42.82
77077;BME280;66003;52.286;104.306;2023-05-31T10:27:27;96188.34;;;20.89;42.61
77077;BME280;66003;52.286;104.306;2023-05-31T10:29:56;96183.28;;;20.88;43.07
77077;BME280;66003;52.286;104.306;2023-05-31T10:32:42;96166.44;;;20.82;43.56
77077;BME280;66003;52.286;104.306;2023-05-31T10:35:12;96182.56;;;20.91;43.16
77077;BME280;66003;52.286;104.306;2023-05-31T10:37:39;96186.69;;;20.85;43.37
77077;BME280;66003;52.286;104.306;2023-05-31T10:41:09;96171.34;;;20.77;42.92
77077;BME280;66003;52.286;104.306;2023-05-31T10:43:14;96198.28;;;20.98;42.59
77077;BME280;66003;52.286;104.306;2023-05-31T10:45:52;96189.50;;;20.88;43.12
77077;BME280;66003;52.286;104.306;2023-05-31T10:49:11;96196.88;;;20.88;42.67
77077;BME280;66003;52.286;104.306;2023-05-31T10:51:15;96193.31;;;20.72;43.08
77077;BME280;66003;52.286;104.306;2023-05-31T10:53:44;96185.22;;;20.60;43.77
77077;BME280;66003;52.286;104.306;2023-05-31T10:56:14;96167.06;;;20.48;43.89
77077;BME280;66003;52.286;104.306;2023-05-31T10:58:51;96163.13;;;20.45;43.07
77077;BME280;66003;52.286;104.306;2023-05-31T11:01:18;96183.47;;;20.51;43.67
77077;BME280;66003;52.286;104.306;2023-05-31T11:03:49;96201.75;;;20.54;43.48
77077;BME280;66003;52.286;104.306;2023-05-31T11:06:22;96192.34;;;20.36;43.98
77077;BME280;66003;52.286;104.306;2023-05-31T11:09:12;96212.19;;;20.52;44.33
77077;BME280;66003;52.286;104.306;2023-05-31T11:11:42;96214.38;;;20.35;44.10
77077;BME280;66003;52.286;104.306;2023-05-31T11:14:27;96214.38;;;20.35;44.11
77077;BME280;66003;52.286;104.306;2023-05-31T11:17:12;96215.56;;;20.09;44.77
77077;BME280;66003;52.286;104.306;2023-05-31T11:19:39;96187.47;;;19.90;44.52
77077;BME280;66003;52.286;104.306;2023-05-31T11:22:07;96216.84;;;20.00;44.88
77077;BME280;66003;52.286;104.306;2023-05-31T11:24:39;96215.59;;;19.97;44.87
77077;BME280;66003;52.286;104.306;2023-05-31T11:27:10;96153.06;;;19.54;45.37
77077;BME280;66003;52.286;104.306;2023-05-31T11:32:15;96203.19;;;19.72;45.62
77077;BME280;66003;52.286;104.306;2023-05-31T11:34:57;96227.25;;;19.86;45.57
77077;BME280;66003;52.286;104.306;2023-05-31T11:37:29;96224.22;;;19.75;45.33
77077;BME280;66003;52.286;104.306;2023-05-31T11:39:56;96218.13;;;19.66;45.32
77077;BME280;66003;52.286;104.306;2023-05-31T11:42:30;96217.13;;;19.70;45.87
77077;BME280;66003;52.286;104.306;2023-05-31T11:44:56;96156.41;;;19.26;45.69
77077;BME280;66003;52.286;104.306;2023-05-31T11:47:26;96208.97;;;19.58;45.99
77077;BME280;66003;52.286;104.306;2023-05-31T11:49:57;96227.38;;;19.65;45.66
77077;BME280;66003;52.286;104.306;2023-05-31T11:52:24;96214.28;;;19.55;45.53
77077;BME280;66003;52.286;104.306;2023-05-31T11:54:50;96224.66;;;19.53;46.13
77077;BME280;66003;52.286;104.306;2023-05-31T11:57:17;96226.59;;;19.52;45.76
77077;BME280;66003;52.286;104.306;2023-05-31T11:59:43;96227.81;;;19.42;45.79
77077;BME280;66003;52.286;104.306;2023-05-31T12:02:09;96236.75;;;19.79;45.14
77077;BME280;66003;52.286;104.306;2023-05-31T12:04:38;96221.25;;;19.43;46.41
77077;BME280;66003;52.286;104.306;2023-05-31T12:07:11;96227.91;;;19.34;46.16
77077;BME280;66003;52.286;104.306;2023-05-31T12:09:38;96221.69;;;19.21;46.67
77077;BME280;66003;52.286;104.306;2023-05-31T12:12:05;96224.16;;;19.14;46.21
77077;BME280;66003;52.286;104.306;2023-05-31T12:14:32;96238.28;;;19.20;46.52
77077;BME280;66003;52.286;104.306;2023-05-31T12:17:05;96250.00;;;19.24;46.68
77077;BME280;66003;52.286;104.306;2023-05-31T12:19:32;96223.22;;;18.98;47.04
77077;BME280;66003;52.286;104.306;2023-05-31T12:22:01;96231.72;;;19.08;46.52
77077;BME280;66003;52.286;104.306;2023-05-31T12:24:27;96218.25;;;18.88;46.23
77077;BME280;66003;52.286;104.306;2023-05-31T12:26:54;96239.47;;;18.98;46.79
77077;BME280;66003;52.286;104.306;2023-05-31T12:29:26;96241.72;;;18.96;46.71
77077;BME280;66003;52.286;104.306;2023-05-31T12:32:00;96248.13;;;18.91;46.55
77077;BME280;66003;52.286;104.306;2023-05-31T12:34:28;96241.97;;;18.70;47.38
77077;BME280;66003;52.286;104.306;2023-05-31T12:37:07;96248.19;;;18.70;47.66
77077;BME280;66003;52.286;104.306;2023-05-31T12:39:34;96255.72;;;18.65;47.90
77077;BME280;66003;52.286;104.306;2023-05-31T12:42:01;96262.06;;;18.69;47.69
77077;BME280;66003;52.286;104.306;2023-05-31T12:44:29;96254.59;;;18.66;47.81
77077;BME280;66003;52.286;104.306;2023-05-31T12:47:04;96231.63;;;18.51;47.60
77077;BME280;66003;52.286;104.306;2023-05-31T12:49:34;96253.06;;;18.56;48.21
77077;BME280;66003;52.286;104.306;2023-05-31T12:52:05;96257.56;;;18.52;48.03